Terminal Aerodrome Forecast
Issued by NWS Wakefield, VA

Home | Current Version | Previous Version | Text Only | Print | Product List | Glossary On
Versions: 1 2 3 4 5 6 7 8 9 10 11 12 13
000
FTUS41 KAKQ 171100
TAFRIC
TAF
KRIC 171120Z 1712/1812 01005KT P6SM SCT060 SCT080
     FM171600 08008KT P6SM BKN050
     FM180300 VRB03KT P6SM SCT050=

USA.gov is the U.S. government's official web portal to all federal, state and local government web resources and services.